sensor_id;sensor_type;location;lat;lon;timestamp;temperature;humidity
18894;DHT22;9579;49.488;8.226;2023-08-17T00:02:11;22.20;99.90
18894;DHT22;9579;49.488;8.226;2023-08-17T00:04:59;22.20;99.90
18894;DHT22;9579;49.488;8.226;2023-08-17T00:07:47;22.20;99.90
18894;DHT22;9579;49.488;8.226;2023-08-17T00:10:34;22.10;99.90
18894;DHT22;9579;49.488;8.226;2023-08-17T00:13:24;22.10;99.90
18894;DHT22;9579;49.488;8.226;2023-08-17T00:16:11;22.10;99.90
18894;DHT22;9579;49.488;8.226;2023-08-17T00:18:58;22.10;99.90
18894;DHT22;9579;49.488;8.226;2023-08-17T00:21:45;22.00;99.90
18894;DHT22;9579;49.488;8.226;2023-08-17T00:24:34;22.00;99.90
18894;DHT22;9579;49.488;8.226;2023-08-17T00:27:21;22.00;99.90
18894;DHT22;9579;49.488;8.226;2023-08-17T00:30:09;22.00;99.90
18894;DHT22;9579;49.488;8.226;2023-08-17T00:32:56;21.90;99.90
18894;DHT22;9579;49.488;8.226;2023-08-17T00:35:43;21.90;99.90
18894;DHT22;9579;49.488;8.226;2023-08-17T00:38:31;21.90;99.90
18894;DHT22;9579;49.488;8.226;2023-08-17T00:41:19;21.90;99.90
18894;DHT22;9579;49.488;8.226;2023-08-17T00:44:06;21.90;99.90
18894;DHT22;9579;49.488;8.226;2023-08-17T00:46:53;21.90;99.90
18894;DHT22;9579;49.488;8.226;2023-08-17T00:49:41;21.90;99.90
18894;DHT22;9579;49.488;8.226;2023-08-17T00:52:28;21.90;99.90
18894;DHT22;9579;49.488;8.226;2023-08-17T00:55:17;21.80;99.90
18894;DHT22;9579;49.488;8.226;2023-08-17T00:58:05;21.80;99.90
18894;DHT22;9579;49.488;8.226;2023-08-17T01:00:52;21.90;99.90
18894;DHT22;9579;49.488;8.226;2023-08-17T01:03:40;21.90;99.90
18894;DHT22;9579;49.488;8.226;2023-08-17T01:06:27;21.90;99.90
18894;DHT22;9579;49.488;8.226;2023-08-17T01:09:14;21.90;99.90
18894;DHT22;9579;49.488;8.226;2023-08-17T01:12:06;22.00;99.90
18894;DHT22;9579;49.488;8.226;2023-08-17T01:15:00;22.00;99.90
18894;DHT22;9579;49.488;8.226;2023-08-17T01:17:56;22.00;99.90
18894;DHT22;9579;49.488;8.226;2023-08-17T01:20:44;22.00;99.90
18894;DHT22;9579;49.488;8.226;2023-08-17T01:23:32;22.00;99.90
18894;DHT22;9579;49.488;8.226;2023-08-17T01:26:20;22.00;99.90
18894;DHT22;9579;49.488;8.226;2023-08-17T01:29:07;21.90;99.90
18894;DHT22;9579;49.488;8.226;2023-08-17T01:32:01;21.90;99.90
18894;DHT22;9579;49.488;8.226;2023-08-17T01:34:56;21.90;99.90
18894;DHT22;9579;49.488;8.226;2023-08-17T01:37:44;21.90;99.90
18894;DHT22;9579;49.488;8.226;2023-08-17T01:40:33;22.00;99.90
18894;DHT22;9579;49.488;8.226;2023-08-17T01:43:20;21.90;99.90
18894;DHT22;9579;49.488;8.226;2023-08-17T01:46:08;21.90;99.90
18894;DHT22;9579;49.488;8.226;2023-08-17T01:48:55;21.90;99.90
18894;DHT22;9579;49.488;8.226;2023-08-17T01:51:42;22.00;99.90
18894;DHT22;9579;49.488;8.226;2023-08-17T01:54:29;21.90;99.90
18894;DHT22;9579;49.488;8.226;2023-08-17T01:57:17;21.80;99.90
18894;DHT22;9579;49.488;8.226;2023-08-17T02:00:05;21.80;99.90
18894;DHT22;9579;49.488;8.226;2023-08-17T02:02:52;21.80;99.90
18894;DHT22;9579;49.488;8.226;2023-08-17T02:05:44;21.80;99.90
18894;DHT22;9579;49.488;8.226;2023-08-17T02:08:33;21.70;99.90
18894;DHT22;9579;49.488;8.226;2023-08-17T02:11:20;21.70;99.90
18894;DHT22;9579;49.488;8.226;2023-08-17T02:14:09;21.70;99.90
18894;DHT22;9579;49.488;8.226;2023-08-17T02:16:56;21.70;99.90
18894;DHT22;9579;49.488;8.226;2023-08-17T02:19:43;21.70;99.90
18894;DHT22;9579;49.488;8.226;2023-08-17T02:22:30;21.70;99.90
18894;DHT22;9579;49.488;8.226;2023-08-17T02:25:17;21.80;99.90
18894;DHT22;9579;49.488;8.226;2023-08-17T02:28:04;21.60;99.90
18894;DHT22;9579;49.488;8.226;2023-08-17T02:30:56;21.70;99.90
18894;DHT22;9579;49.488;8.226;2023-08-17T02:33:43;21.70;99.90
18894;DHT22;9579;49.488;8.226;2023-08-17T02:36:30;21.60;99.90
18894;DHT22;9579;49.488;8.226;2023-08-17T02:39:17;21.60;99.90
18894;DHT22;9579;49.488;8.226;2023-08-17T02:42:05;21.60;99.90
18894;DHT22;9579;49.488;8.226;2023-08-17T02:44:52;21.60;99.90
18894;DHT22;9579;49.488;8.226;2023-08-17T02:47:40;21.50;99.90
18894;DHT22;9579;49.488;8.226;2023-08-17T02:50:27;21.50;99.90
18894;DHT22;9579;49.488;8.226;2023-08-17T02:53:14;21.40;99.90
18894;DHT22;9579;49.488;8.226;2023-08-17T02:56:01;21.40;99.90
18894;DHT22;9579;49.488;8.226;2023-08-17T02:58:48;21.40;99.90
18894;DHT22;9579;49.488;8.226;2023-08-17T03:01:35;21.40;99.90
18894;DHT22;9579;49.488;8.226;2023-08-17T03:04:24;21.30;99.90
18894;DHT22;9579;49.488;8.226;2023-08-17T03:07:11;21.30;99.90
18894;DHT22;9579;49.488;8.226;2023-08-17T03:09:58;21.40;99.90
18894;DHT22;9579;49.488;8.226;2023-08-17T03:12:45;21.40;99.90
18894;DHT22;9579;49.488;8.226;2023-08-17T03:15:32;21.30;99.90
18894;DHT22;9579;49.488;8.226;2023-08-17T03:18:19;21.30;99.90
18894;DHT22;9579;49.488;8.226;2023-08-17T03:21:07;21.30;99.90
18894;DHT22;9579;49.488;8.226;2023-08-17T03:23:54;21.40;99.90
18894;DHT22;9579;49.488;8.226;2023-08-17T03:26:41;21.40;99.90
18894;DHT22;9579;49.488;8.226;2023-08-17T03:29:28;21.40;99.90
18894;DHT22;9579;49.488;8.226;2023-08-17T03:32:15;21.40;99.90
18894;DHT22;9579;49.488;8.226;2023-08-17T03:35:03;21.30;99.90
18894;DHT22;9579;49.488;8.226;2023-08-17T03:37:51;21.30;99.90
18894;DHT22;9579;49.488;8.226;2023-08-17T03:40:38;21.30;99.90
18894;DHT22;9579;49.488;8.226;2023-08-17T03:43:25;21.30;99.90
18894;DHT22;9579;49.488;8.226;2023-08-17T03:46:13;21.10;99.90
18894;DHT22;9579;49.488;8.226;2023-08-17T03:49:00;21.20;99.90
18894;DHT22;9579;49.488;8.226;2023-08-17T03:51:47;21.10;99.90
18894;DHT22;9579;49.488;8.226;2023-08-17T03:54:35;21.10;99.90
18894;DHT22;9579;49.488;8.226;2023-08-17T03:57:22;21.20;99.90
18894;DHT22;9579;49.488;8.226;2023-08-17T04:00:10;21.20;99.90
18894;DHT22;9579;49.488;8.226;2023-08-17T04:02:57;21.20;99.90
18894;DHT22;9579;49.488;8.226;2023-08-17T04:05:44;21.20;99.90
18894;DHT22;9579;49.488;8.226;2023-08-17T04:08:31;21.20;99.90
18894;DHT22;9579;49.488;8.226;2023-08-17T04:11:20;21.20;99.90
18894;DHT22;9579;49.488;8.226;2023-08-17T04:14:07;21.20;99.90
18894;DHT22;9579;49.488;8.226;2023-08-17T04:16:54;21.20;99.90
18894;DHT22;9579;49.488;8.226;2023-08-17T04:19:42;21.20;99.90
18894;DHT22;9579;49.488;8.226;2023-08-17T04:22:29;21.10;99.90
18894;DHT22;9579;49.488;8.226;2023-08-17T04:25:16;21.10;99.90
18894;DHT22;9579;49.488;8.226;2023-08-17T04:28:05;21.20;99.90
18894;DHT22;9579;49.488;8.226;2023-08-17T04:30:52;21.10;99.90
18894;DHT22;9579;49.488;8.226;2023-08-17T04:33:40;21.20;99.90
18894;DHT22;9579;49.488;8.226;2023-08-17T04:36:27;21.20;99.90
18894;DHT22;9579;49.488;8.226;2023-08-17T04:39:14;21.20;99.90
18894;DHT22;9579;49.488;8.226;2023-08-17T04:42:02;21.20;99.90
18894;DHT22;9579;49.488;8.226;2023-08-17T04:44:51;21.20;99.90
18894;DHT22;9579;49.488;8.226;2023-08-17T04:47:38;21.20;99.90
18894;DHT22;9579;49.488;8.226;2023-08-17T04:50:25;21.20;99.90
18894;DHT22;9579;49.488;8.226;2023-08-17T04:53:12;21.10;99.90
18894;DHT22;9579;49.488;8.226;2023-08-17T04:55:59;21.20;99.90
18894;DHT22;9579;49.488;8.226;2023-08-17T04:58:46;21.20;99.90
18894;DHT22;9579;49.488;8.226;2023-08-17T05:01:34;21.20;99.90
18894;DHT22;9579;49.488;8.226;2023-08-17T05:04:22;21.20;99.90
18894;DHT22;9579;49.488;8.226;2023-08-17T05:07:09;21.30;99.90
18894;DHT22;9579;49.488;8.226;2023-08-17T05:09:56;21.40;99.90
18894;DHT22;9579;49.488;8.226;2023-08-17T05:12:43;21.40;99.90
18894;DHT22;9579;49.488;8.226;2023-08-17T05:15:32;21.40;99.90
18894;DHT22;9579;49.488;8.226;2023-08-17T05:18:20;21.40;99.90
18894;DHT22;9579;49.488;8.226;2023-08-17T05:21:07;21.40;99.90
18894;DHT22;9579;49.488;8.226;2023-08-17T05:23:54;21.40;99.90
18894;DHT22;9579;49.488;8.226;2023-08-17T05:26:42;21.40;99.90
18894;DHT22;9579;49.488;8.226;2023-08-17T05:29:29;21.40;99.90
18894;DHT22;9579;49.488;8.226;2023-08-17T05:32:17;21.50;99.90
18894;DHT22;9579;49.488;8.226;2023-08-17T05:35:06;21.50;99.90
18894;DHT22;9579;49.488;8.226;2023-08-17T05:37:54;21.50;99.90
18894;DHT22;9579;49.488;8.226;2023-08-17T05:40:41;21.50;99.90
18894;DHT22;9579;49.488;8.226;2023-08-17T05:43:28;21.60;99.90
18894;DHT22;9579;49.488;8.226;2023-08-17T05:46:15;21.60;99.90
18894;DHT22;9579;49.488;8.226;2023-08-17T05:49:02;21.60;99.90
18894;DHT22;9579;49.488;8.226;2023-08-17T05:51:51;21.60;99.90
18894;DHT22;9579;49.488;8.226;2023-08-17T05:54:38;21.60;99.90
18894;DHT22;9579;49.488;8.226;2023-08-17T05:57:25;21.70;99.90
18894;DHT22;9579;49.488;8.226;2023-08-17T06:00:12;21.70;99.90
18894;DHT22;9579;49.488;8.226;2023-08-17T06:03:00;21.80;99.90
18894;DHT22;9579;49.488;8.226;2023-08-17T06:05:47;21.80;99.90
18894;DHT22;9579;49.488;8.226;2023-08-17T06:08:36;21.80;99.90
18894;DHT22;9579;49.488;8.226;2023-08-17T06:11:23;21.80;99.90
18894;DHT22;9579;49.488;8.226;2023-08-17T06:14:10;21.90;99.90
18894;DHT22;9579;49.488;8.226;2023-08-17T06:16:58;21.90;99.90
18894;DHT22;9579;49.488;8.226;2023-08-17T06:19:45;21.90;99.90
18894;DHT22;9579;49.488;8.226;2023-08-17T06:22:32;21.90;99.90
18894;DHT22;9579;49.488;8.226;2023-08-17T06:25:20;22.00;99.90
18894;DHT22;9579;49.488;8.226;2023-08-17T06:28:07;22.00;99.90
18894;DHT22;9579;49.488;8.226;2023-08-17T06:30:55;22.00;99.90
18894;DHT22;9579;49.488;8.226;2023-08-17T06:33:42;22.00;99.90
18894;DHT22;9579;49.488;8.226;2023-08-17T06:36:31;22.10;99.90
18894;DHT22;9579;49.488;8.226;2023-08-17T06:39:18;22.00;99.90
18894;DHT22;9579;49.488;8.226;2023-08-17T06:42:06;22.20;99.90
18894;DHT22;9579;49.488;8.226;2023-08-17T06:44:53;22.30;99.90
18894;DHT22;9579;49.488;8.226;2023-08-17T06:47:40;22.40;99.90
18894;DHT22;9579;49.488;8.226;2023-08-17T06:50:27;22.40;99.90
18894;DHT22;9579;49.488;8.226;2023-08-17T06:53:14;22.50;99.90
18894;DHT22;9579;49.488;8.226;2023-08-17T06:56:01;22.60;99.90
18894;DHT22;9579;49.488;8.226;2023-08-17T06:58:50;22.60;99.90
18894;DHT22;9579;49.488;8.226;2023-08-17T07:01:37;22.70;99.90
18894;DHT22;9579;49.488;8.226;2023-08-17T07:04:24;22.70;99.90
18894;DHT22;9579;49.488;8.226;2023-08-17T07:07:11;22.70;99.90
18894;DHT22;9579;49.488;8.226;2023-08-17T07:09:59;22.80;99.90
18894;DHT22;9579;49.488;8.226;2023-08-17T07:12:47;22.80;99.90
18894;DHT22;9579;49.488;8.226;2023-08-17T07:15:35;22.80;99.90
18894;DHT22;9579;49.488;8.226;2023-08-17T07:18:22;22.90;99.90
18894;DHT22;9579;49.488;8.226;2023-08-17T07:21:09;23.00;99.90
18894;DHT22;9579;49.488;8.226;2023-08-17T07:23:56;23.10;99.90
18894;DHT22;9579;49.488;8.226;2023-08-17T07:26:44;23.30;99.90
18894;DHT22;9579;49.488;8.226;2023-08-17T07:29:31;23.20;99.90
18894;DHT22;9579;49.488;8.226;2023-08-17T07:32:19;23.40;99.90
18894;DHT22;9579;49.488;8.226;2023-08-17T07:35:07;23.40;99.90
18894;DHT22;9579;49.488;8.226;2023-08-17T07:37:55;23.40;99.90
18894;DHT22;9579;49.488;8.226;2023-08-17T07:40:42;23.50;99.90
18894;DHT22;9579;49.488;8.226;2023-08-17T07:43:29;23.50;99.90
18894;DHT22;9579;49.488;8.226;2023-08-17T07:46:16;23.50;99.90
18894;DHT22;9579;49.488;8.226;2023-08-17T07:49:04;23.60;99.90
18894;DHT22;9579;49.488;8.226;2023-08-17T07:51:52;23.70;99.90
18894;DHT22;9579;49.488;8.226;2023-08-17T07:54:39;23.80;99.90
18894;DHT22;9579;49.488;8.226;2023-08-17T07:57:26;23.80;99.90
18894;DHT22;9579;49.488;8.226;2023-08-17T08:00:14;23.90;99.90
18894;DHT22;9579;49.488;8.226;2023-08-17T08:03:01;24.00;99.90
18894;DHT22;9579;49.488;8.226;2023-08-17T08:05:49;24.00;99.90
18894;DHT22;9579;49.488;8.226;2023-08-17T08:08:36;24.10;99.90
18894;DHT22;9579;49.488;8.226;2023-08-17T08:11:23;24.20;99.90
18894;DHT22;9579;49.488;8.226;2023-08-17T08:14:10;24.20;99.90
18894;DHT22;9579;49.488;8.226;2023-08-17T08:16:57;24.30;99.90
18894;DHT22;9579;49.488;8.226;2023-08-17T08:19:44;24.40;99.90
18894;DHT22;9579;49.488;8.226;2023-08-17T08:22:33;24.40;99.90
18894;DHT22;9579;49.488;8.226;2023-08-17T08:25:20;24.50;99.90
18894;DHT22;9579;49.488;8.226;2023-08-17T08:28:07;24.60;99.90
18894;DHT22;9579;49.488;8.226;2023-08-17T08:30:54;24.70;99.90
18894;DHT22;9579;49.488;8.226;2023-08-17T08:33:41;24.70;99.90
18894;DHT22;9579;49.488;8.226;2023-08-17T08:36:28;24.80;99.90
18894;DHT22;9579;49.488;8.226;2023-08-17T08:39:16;25.00;99.90
18894;DHT22;9579;49.488;8.226;2023-08-17T08:42:04;25.20;99.90
18894;DHT22;9579;49.488;8.226;2023-08-17T08:44:51;25.40;99.90
18894;DHT22;9579;49.488;8.226;2023-08-17T08:47:40;25.50;99.90
18894;DHT22;9579;49.488;8.226;2023-08-17T08:50:31;25.60;99.90
18894;DHT22;9579;49.488;8.226;2023-08-17T08:53:24;25.70;99.90
18894;DHT22;9579;49.488;8.226;2023-08-17T08:56:19;25.80;99.90
18894;DHT22;9579;49.488;8.226;2023-08-17T08:59:08;25.70;99.90
18894;DHT22;9579;49.488;8.226;2023-08-17T09:01:57;25.70;99.90
18894;DHT22;9579;49.488;8.226;2023-08-17T09:04:45;25.90;99.90
18894;DHT22;9579;49.488;8.226;2023-08-17T09:07:33;26.00;99.90
18894;DHT22;9579;49.488;8.226;2023-08-17T09:10:20;26.10;99.90
18894;DHT22;9579;49.488;8.226;2023-08-17T09:13:09;26.20;99.90
18894;DHT22;9579;49.488;8.226;2023-08-17T09:15:59;26.30;99.90
18894;DHT22;9579;49.488;8.226;2023-08-17T09:18:46;26.30;99.90
18894;DHT22;9579;49.488;8.226;2023-08-17T09:21:34;26.50;99.90
18894;DHT22;9579;49.488;8.226;2023-08-17T09:24:21;26.60;99.90
18894;DHT22;9579;49.488;8.226;2023-08-17T09:27:12;26.80;99.90
18894;DHT22;9579;49.488;8.226;2023-08-17T09:30:03;26.80;99.90
18894;DHT22;9579;49.488;8.226;2023-08-17T09:32:51;27.10;99.90
18894;DHT22;9579;49.488;8.226;2023-08-17T09:35:41;27.40;99.90
18894;DHT22;9579;49.488;8.226;2023-08-17T09:38:28;27.60;99.90
18894;DHT22;9579;49.488;8.226;2023-08-17T09:41:15;27.80;99.90
18894;DHT22;9579;49.488;8.226;2023-08-17T09:44:03;27.80;99.90
18894;DHT22;9579;49.488;8.226;2023-08-17T09:46:55;28.00;99.90
18894;DHT22;9579;49.488;8.226;2023-08-17T09:49:42;28.20;99.90
18894;DHT22;9579;49.488;8.226;2023-08-17T09:52:29;28.20;99.90
18894;DHT22;9579;49.488;8.226;2023-08-17T09:55:16;28.30;99.90
18894;DHT22;9579;49.488;8.226;2023-08-17T09:58:03;28.40;99.90
18894;DHT22;9579;49.488;8.226;2023-08-17T10:00:51;28.70;99.90
18894;DHT22;9579;49.488;8.226;2023-08-17T10:03:42;29.00;99.90
18894;DHT22;9579;49.488;8.226;2023-08-17T10:06:32;29.30;99.90
18894;DHT22;9579;49.488;8.226;2023-08-17T10:09:25;29.30;99.90
18894;DHT22;9579;49.488;8.226;2023-08-17T10:12:16;29.50;99.90
18894;DHT22;9579;49.488;8.226;2023-08-17T10:15:07;29.60;99.90
18894;DHT22;9579;49.488;8.226;2023-08-17T10:18:00;29.70;99.90
18894;DHT22;9579;49.488;8.226;2023-08-17T10:21:00;29.60;99.90
18894;DHT22;9579;49.488;8.226;2023-08-17T10:23:47;29.70;99.90
18894;DHT22;9579;49.488;8.226;2023-08-17T10:26:35;29.70;99.90
18894;DHT22;9579;49.488;8.226;2023-08-17T10:29:23;29.70;99.90
18894;DHT22;9579;49.488;8.226;2023-08-17T10:32:11;29.70;99.90
18894;DHT22;9579;49.488;8.226;2023-08-17T10:34:58;29.70;99.90
18894;DHT22;9579;49.488;8.226;2023-08-17T10:37:47;29.90;99.90
18894;DHT22;9579;49.488;8.226;2023-08-17T10:40:35;29.90;99.90
18894;DHT22;9579;49.488;8.226;2023-08-17T10:43:32;30.10;99.90
18894;DHT22;9579;49.488;8.226;2023-08-17T10:46:19;30.30;99.90
18894;DHT22;9579;49.488;8.226;2023-08-17T10:49:23;30.30;99.90
18894;DHT22;9579;49.488;8.226;2023-08-17T10:52:11;30.30;99.90
18894;DHT22;9579;49.488;8.226;2023-08-17T10:55:04;30.30;99.90
18894;DHT22;9579;49.488;8.226;2023-08-17T10:57:52;30.60;99.90
18894;DHT22;9579;49.488;8.226;2023-08-17T11:00:40;30.70;99.90
18894;DHT22;9579;49.488;8.226;2023-08-17T11:03:28;30.70;99.90
18894;DHT22;9579;49.488;8.226;2023-08-17T11:06:16;31.10;99.90
18894;DHT22;9579;49.488;8.226;2023-08-17T11:09:06;31.20;99.90
18894;DHT22;9579;49.488;8.226;2023-08-17T11:11:55;31.40;99.90
18894;DHT22;9579;49.488;8.226;2023-08-17T11:14:46;31.40;99.90
18894;DHT22;9579;49.488;8.226;2023-08-17T11:17:33;31.60;99.90
18894;DHT22;9579;49.488;8.226;2023-08-17T11:20:23;31.70;99.90
18894;DHT22;9579;49.488;8.226;2023-08-17T11:23:10;32.10;99.90
18894;DHT22;9579;49.488;8.226;2023-08-17T11:25:57;32.20;99.90
18894;DHT22;9579;49.488;8.226;2023-08-17T11:28:46;32.20;99.90
18894;DHT22;9579;49.488;8.226;2023-08-17T11:31:34;32.50;99.90
18894;DHT22;9579;49.488;8.226;2023-08-17T11:34:21;32.60;99.90
18894;DHT22;9579;49.488;8.226;2023-08-17T11:37:08;32.50;99.90
18894;DHT22;9579;49.488;8.226;2023-08-17T11:39:59;32.40;99.90
18894;DHT22;9579;49.488;8.226;2023-08-17T11:42:47;32.30;99.90
18894;DHT22;9579;49.488;8.226;2023-08-17T11:45:36;32.30;99.90
18894;DHT22;9579;49.488;8.226;2023-08-17T11:48:23;32.60;99.90
18894;DHT22;9579;49.488;8.226;2023-08-17T11:51:11;33.00;99.90
18894;DHT22;9579;49.488;8.226;2023-08-17T11:53:59;33.20;99.40
18894;DHT22;9579;49.488;8.226;2023-08-17T11:56:46;33.60;99.60
18894;DHT22;9579;49.488;8.226;2023-08-17T11:59:33;34.00;99.00
18894;DHT22;9579;49.488;8.226;2023-08-17T12:02:23;34.30;98.60
18894;DHT22;9579;49.488;8.226;2023-08-17T12:05:10;34.40;97.90
18894;DHT22;9579;49.488;8.226;2023-08-17T12:07:59;34.20;96.90
18894;DHT22;9579;49.488;8.226;2023-08-17T12:10:47;34.40;97.40
18894;DHT22;9579;49.488;8.226;2023-08-17T12:13:34;34.50;97.60
18894;DHT22;9579;49.488;8.226;2023-08-17T12:16:22;34.90;97.60
18894;DHT22;9579;49.488;8.226;2023-08-17T12:19:11;35.00;96.80
18894;DHT22;9579;49.488;8.226;2023-08-17T12:21:58;34.50;96.40
18894;DHT22;9579;49.488;8.226;2023-08-17T12:24:45;33.70;96.80
18894;DHT22;9579;49.488;8.226;2023-08-17T12:27:34;33.10;97.50
18894;DHT22;9579;49.488;8.226;2023-08-17T12:30:26;32.60;98.80
18894;DHT22;9579;49.488;8.226;2023-08-17T12:33:13;32.30;98.80
18894;DHT22;9579;49.488;8.226;2023-08-17T12:36:01;32.00;99.90
18894;DHT22;9579;49.488;8.226;2023-08-17T12:38:49;31.70;99.80
18894;DHT22;9579;49.488;8.226;2023-08-17T12:41:36;31.50;99.90
18894;DHT22;9579;49.488;8.226;2023-08-17T12:44:24;31.30;99.90
18894;DHT22;9579;49.488;8.226;2023-08-17T12:47:11;31.10;99.90
18894;DHT22;9579;49.488;8.226;2023-08-17T12:49:58;30.90;99.90
18894;DHT22;9579;49.488;8.226;2023-08-17T12:52:47;30.80;99.90
18894;DHT22;9579;49.488;8.226;2023-08-17T12:55:34;30.60;99.90
18894;DHT22;9579;49.488;8.226;2023-08-17T12:58:21;30.50;99.90
18894;DHT22;9579;49.488;8.226;2023-08-17T13:01:08;30.40;99.90
18894;DHT22;9579;49.488;8.226;2023-08-17T13:03:56;30.30;99.90
18894;DHT22;9579;49.488;8.226;2023-08-17T13:06:43;30.30;99.90
18894;DHT22;9579;49.488;8.226;2023-08-17T13:09:31;30.30;99.90
18894;DHT22;9579;49.488;8.226;2023-08-17T13:12:18;30.30;99.90
18894;DHT22;9579;49.488;8.226;2023-08-17T13:15:06;30.40;99.90
18894;DHT22;9579;49.488;8.226;2023-08-17T13:17:53;30.40;99.90
18894;DHT22;9579;49.488;8.226;2023-08-17T13:20:40;30.40;99.90
18894;DHT22;9579;49.488;8.226;2023-08-17T13:23:27;30.30;99.90
18894;DHT22;9579;49.488;8.226;2023-08-17T13:26:16;30.40;99.90
18894;DHT22;9579;49.488;8.226;2023-08-17T13:29:03;30.40;99.90
18894;DHT22;9579;49.488;8.226;2023-08-17T13:31:50;30.40;99.90
18894;DHT22;9579;49.488;8.226;2023-08-17T13:34:37;30.70;99.90
18894;DHT22;9579;49.488;8.226;2023-08-17T13:37:24;31.80;99.90
18894;DHT22;9579;49.488;8.226;2023-08-17T13:40:13;32.90;99.90
18894;DHT22;9579;49.488;8.226;2023-08-17T13:43:02;33.90;99.90
18894;DHT22;9579;49.488;8.226;2023-08-17T13:45:49;34.60;99.70
18894;DHT22;9579;49.488;8.226;2023-08-17T13:48:36;35.20;98.40
18894;DHT22;9579;49.488;8.226;2023-08-17T13:51:24;35.90;97.10
18894;DHT22;9579;49.488;8.226;2023-08-17T13:54:11;36.20;95.30
18894;DHT22;9579;49.488;8.226;2023-08-17T13:56:58;36.40;95.60
18894;DHT22;9579;49.488;8.226;2023-08-17T13:59:47;36.70;94.40
18894;DHT22;9579;49.488;8.226;2023-08-17T14:02:34;36.80;94.10
18894;DHT22;9579;49.488;8.226;2023-08-17T14:05:21;36.50;94.50
18894;DHT22;9579;49.488;8.226;2023-08-17T14:08:08;36.30;93.70
18894;DHT22;9579;49.488;8.226;2023-08-17T14:10:56;36.30;94.10
18894;DHT22;9579;49.488;8.226;2023-08-17T14:13:43;36.40;94.10
18894;DHT22;9579;49.488;8.226;2023-08-17T14:16:32;36.70;94.10
18894;DHT22;9579;49.488;8.226;2023-08-17T14:19:19;37.00;93.50
18894;DHT22;9579;49.488;8.226;2023-08-17T14:22:06;37.20;92.90
18894;DHT22;9579;49.488;8.226;2023-08-17T14:24:53;37.40;93.50
18894;DHT22;9579;49.488;8.226;2023-08-17T14:27:40;37.60;93.10
18894;DHT22;9579;49.488;8.226;2023-08-17T14:30:28;37.50;92.70
18894;DHT22;9579;49.488;8.226;2023-08-17T14:33:16;37.20;92.40
18894;DHT22;9579;49.488;8.226;2023-08-17T14:36:03;37.20;93.30
18894;DHT22;9579;49.488;8.226;2023-08-17T14:38:50;36.80;93.00
18894;DHT22;9579;49.488;8.226;2023-08-17T14:41:37;36.40;93.00
18894;DHT22;9579;49.488;8.226;2023-08-17T14:44:24;35.80;94.30
18894;DHT22;9579;49.488;8.226;2023-08-17T14:47:11;35.40;94.60
18894;DHT22;9579;49.488;8.226;2023-08-17T14:50:00;34.80;94.50
18894;DHT22;9579;49.488;8.226;2023-08-17T14:52:47;34.70;95.40
18894;DHT22;9579;49.488;8.226;2023-08-17T14:55:34;34.50;96.50
18894;DHT22;9579;49.488;8.226;2023-08-17T14:58:21;34.40;96.10
18894;DHT22;9579;49.488;8.226;2023-08-17T15:01:08;34.20;96.60
18894;DHT22;9579;49.488;8.226;2023-08-17T15:03:55;34.00;96.20
18894;DHT22;9579;49.488;8.226;2023-08-17T15:06:45;33.90;97.00
18894;DHT22;9579;49.488;8.226;2023-08-17T15:09:32;33.80;96.80
18894;DHT22;9579;49.488;8.226;2023-08-17T15:12:19;33.80;97.50
18894;DHT22;9579;49.488;8.226;2023-08-17T15:15:07;34.10;97.10
18894;DHT22;9579;49.488;8.226;2023-08-17T15:17:54;34.60;96.20
18894;DHT22;9579;49.488;8.226;2023-08-17T15:20:41;35.00;94.70
18894;DHT22;9579;49.488;8.226;2023-08-17T15:23:30;35.20;94.40
18894;DHT22;9579;49.488;8.226;2023-08-17T15:26:17;35.40;94.20
18894;DHT22;9579;49.488;8.226;2023-08-17T15:29:04;35.40;94.40
18894;DHT22;9579;49.488;8.226;2023-08-17T15:31:51;35.10;94.20
18894;DHT22;9579;49.488;8.226;2023-08-17T15:34:38;34.80;95.60
18894;DHT22;9579;49.488;8.226;2023-08-17T15:37:25;34.60;95.70
18894;DHT22;9579;49.488;8.226;2023-08-17T15:40:15;34.40;96.20
18894;DHT22;9579;49.488;8.226;2023-08-17T15:43:02;34.20;94.90
18894;DHT22;9579;49.488;8.226;2023-08-17T15:45:51;33.90;95.80
18894;DHT22;9579;49.488;8.226;2023-08-17T15:48:38;33.50;96.40
18894;DHT22;9579;49.488;8.226;2023-08-17T15:51:25;33.20;96.90
18894;DHT22;9579;49.488;8.226;2023-08-17T15:54:13;32.80;97.10
18894;DHT22;9579;49.488;8.226;2023-08-17T15:57:02;32.70;97.80
18894;DHT22;9579;49.488;8.226;2023-08-17T15:59:49;32.50;98.10
18894;DHT22;9579;49.488;8.226;2023-08-17T16:02:38;32.50;98.40
18894;DHT22;9579;49.488;8.226;2023-08-17T16:05:25;32.30;98.10
18894;DHT22;9579;49.488;8.226;2023-08-17T16:08:12;32.20;98.40
18894;DHT22;9579;49.488;8.226;2023-08-17T16:10:59;32.10;98.80
18894;DHT22;9579;49.488;8.226;2023-08-17T16:13:47;32.10;98.70
18894;DHT22;9579;49.488;8.226;2023-08-17T16:16:34;32.00;98.70
18894;DHT22;9579;49.488;8.226;2023-08-17T16:19:21;31.90;98.20
18894;DHT22;9579;49.488;8.226;2023-08-17T16:22:08;31.80;98.80
18894;DHT22;9579;49.488;8.226;2023-08-17T16:24:55;31.70;99.20
18894;DHT22;9579;49.488;8.226;2023-08-17T16:27:42;31.60;98.70
18894;DHT22;9579;49.488;8.226;2023-08-17T16:30:31;31.40;99.10
18894;DHT22;9579;49.488;8.226;2023-08-17T16:33:21;31.40;99.40
18894;DHT22;9579;49.488;8.226;2023-08-17T16:36:08;31.30;99.30
18894;DHT22;9579;49.488;8.226;2023-08-17T16:38:55;31.20;99.30
18894;DHT22;9579;49.488;8.226;2023-08-17T16:41:42;31.20;99.50
18894;DHT22;9579;49.488;8.226;2023-08-17T16:44:29;31.20;99.60
18894;DHT22;9579;49.488;8.226;2023-08-17T16:47:17;31.20;99.50
18894;DHT22;9579;49.488;8.226;2023-08-17T16:50:07;31.10;99.90
18894;DHT22;9579;49.488;8.226;2023-08-17T16:52:55;31.00;99.90
18894;DHT22;9579;49.488;8.226;2023-08-17T16:55:42;31.10;99.80
18894;DHT22;9579;49.488;8.226;2023-08-17T16:58:29;30.90;99.80
18894;DHT22;9579;49.488;8.226;2023-08-17T17:01:16;30.90;99.60
18894;DHT22;9579;49.488;8.226;2023-08-17T17:04:05;30.80;99.70
18894;DHT22;9579;49.488;8.226;2023-08-17T17:06:52;30.70;99.50
18894;DHT22;9579;49.488;8.226;2023-08-17T17:09:39;30.70;99.80
18894;DHT22;9579;49.488;8.226;2023-08-17T17:12:26;30.70;99.90
18894;DHT22;9579;49.488;8.226;2023-08-17T17:15:13;30.70;99.90
18894;DHT22;9579;49.488;8.226;2023-08-17T17:18:00;30.60;99.90
18894;DHT22;9579;49.488;8.226;2023-08-17T17:20:59;30.60;99.90
18894;DHT22;9579;49.488;8.226;2023-08-17T17:23:46;30.50;99.90
18894;DHT22;9579;49.488;8.226;2023-08-17T17:26:33;30.50;99.90
18894;DHT22;9579;49.488;8.226;2023-08-17T17:29:22;30.40;99.90
18894;DHT22;9579;49.488;8.226;2023-08-17T17:32:09;30.30;99.90
18894;DHT22;9579;49.488;8.226;2023-08-17T17:34:56;30.20;99.90
18894;DHT22;9579;49.488;8.226;2023-08-17T17:37:44;30.10;99.90
18894;DHT22;9579;49.488;8.226;2023-08-17T17:40:31;30.10;99.90
18894;DHT22;9579;49.488;8.226;2023-08-17T17:43:18;29.90;99.90
18894;DHT22;9579;49.488;8.226;2023-08-17T17:46:05;29.80;99.90
18894;DHT22;9579;49.488;8.226;2023-08-17T17:48:52;29.80;99.90
18894;DHT22;9579;49.488;8.226;2023-08-17T17:51:39;29.80;99.90
18894;DHT22;9579;49.488;8.226;2023-08-17T17:54:28;29.70;99.90
18894;DHT22;9579;49.488;8.226;2023-08-17T17:57:14;29.50;99.90